Time;durP1;ratioP1;P1;durP2;ratioP2;P2;SDS_P1;SDS_P2;PMS_P1;PMS_P2;Temp;Humidity;BMP_temperature;BMP_pressure;BME280_temperature;BME280_humidity;BME280_pressure;Samples;Min_cycle;Max_cycle;Signal;HPM_P1;HPM_P2
2021/06/29 00:01:06;;;;;;;6.30;1.42;;;;;;;;;;5055262;28;20036;-67
2021/06/29 00:03:33;;;;;;;3.85;1.73;;;;;;;;;;5054815;28;20032;-67
2021/06/29 00:05:59;;;;;;;5.95;1.70;;;;;;;;;;5055193;28;20025;-67
2021/06/29 00:08:25;;;;;;;5.03;2.03;;;;;;;;;;5054859;28;20025;-67
2021/06/29 00:10:51;;;;;;;2.42;1.27;;;;;;;;;;5054781;28;20033;-67
2021/06/29 00:13:20;;;;;;;4.88;1.30;;;;;;;;;;5054649;28;20024;-67
2021/06/29 00:15:46;;;;;;;7.32;1.65;;;;;;;;;;5054722;28;20132;-67
2021/06/29 00:18:12;;;;;;;8.30;1.42;;;;;;;;;;5054995;28;20071;-67
2021/06/29 00:20:38;;;;;;;6.40;1.50;;;;;;;;;;5054857;28;20025;-67
2021/06/29 00:23:05;;;;;;;4.40;1.30;;;;;;;;;;5054710;28;20032;-67
2021/06/29 00:25:31;;;;;;;4.47;1.63;;;;;;;;;;5053559;28;20408;-67
2021/06/29 00:27:57;;;;;;;2.60;1.30;;;;;;;;;;5054490;28;20043;-67
2021/06/29 00:30:23;;;;;;;2.72;1.30;;;;;;;;;;5054913;28;20036;-67
2021/06/29 00:32:49;;;;;;;3.95;1.50;;;;;;;;;;5054506;28;20155;-67
2021/06/29 00:35:15;;;;;;;2.92;1.42;;;;;;;;;;5054845;28;20049;-67
2021/06/29 00:37:43;;;;;;;4.45;1.40;;;;;;;;;;5054635;28;20028;-67
2021/06/29 00:40:10;;;;;;;1.77;1.15;;;;;;;;;;5054400;28;20055;-67
2021/06/29 00:42:36;;;;;;;3.03;1.48;;;;;;;;;;5054263;28;20032;-67
2021/06/29 00:45:03;;;;;;;6.43;1.40;;;;;;;;;;5054431;28;20041;-67
2021/06/29 00:47:29;;;;;;;5.57;1.52;;;;;;;;;;5054305;28;20107;-67
2021/06/29 00:49:55;;;;;;;5.53;1.65;;;;;;;;;;5054352;28;20100;-67
2021/06/29 00:52:22;;;;;;;7.47;1.90;;;;;;;;;;5054307;28;20367;-67
2021/06/29 00:54:49;;;;;;;3.28;1.63;;;;;;;;;;5053926;28;20017;-67
2021/06/29 00:57:15;;;;;;;5.50;1.80;;;;;;;;;;5054186;28;20036;-68
2021/06/29 00:59:42;;;;;;;5.97;1.60;;;;;;;;;;5050869;28;20079;-68
2021/06/29 01:02:08;;;;;;;4.90;1.35;;;;;;;;;;5049692;28;20405;-67
2021/06/29 01:04:35;;;;;;;3.80;1.70;;;;;;;;;;5052633;28;20021;-67
2021/06/29 01:07:01;;;;;;;4.03;1.05;;;;;;;;;;5053689;28;20059;-67
2021/06/29 01:09:27;;;;;;;4.03;1.30;;;;;;;;;;5053739;28;20041;-67
2021/06/29 01:11:53;;;;;;;3.97;1.23;;;;;;;;;;5053754;28;20121;-67
2021/06/29 01:14:19;;;;;;;2.92;1.40;;;;;;;;;;5052949;28;20025;-67
2021/06/29 01:16:46;;;;;;;2.08;1.15;;;;;;;;;;5053804;28;20021;-67
2021/06/29 01:19:16;;;;;;;2.60;1.20;;;;;;;;;;5053392;28;20025;-67
2021/06/29 01:21:44;;;;;;;3.60;1.27;;;;;;;;;;5053569;28;20013;-67
2021/06/29 01:24:12;;;;;;;6.70;1.40;;;;;;;;;;5053671;28;20025;-67
2021/06/29 01:26:43;;;;;;;4.63;1.40;;;;;;;;;;5053522;28;20021;-67
2021/06/29 01:29:10;;;;;;;2.17;1.00;;;;;;;;;;5052991;28;20067;-67
2021/06/29 01:31:36;;;;;;;3.75;1.45;;;;;;;;;;5053373;28;20025;-67
2021/06/29 01:34:04;;;;;;;7.72;1.10;;;;;;;;;;5053267;28;20481;-67
2021/06/29 01:36:39;;;;;;;2.55;1.10;;;;;;;;;;5053192;28;20021;-67
2021/06/29 01:39:07;;;;;;;2.70;1.20;;;;;;;;;;5053250;28;20420;-67
2021/06/29 01:41:33;;;;;;;4.72;1.25;;;;;;;;;;5053401;28;20366;-67
2021/06/29 01:44:05;;;;;;;5.72;1.05;;;;;;;;;;5052647;28;20053;-67
2021/06/29 01:46:34;;;;;;;;;;;;;;;;;;5053404;28;20031;-67
2021/06/29 01:49:00;;;;;;;3.78;1.33;;;;;;;;;;5053088;28;19912;-67
2021/06/29 01:51:26;;;;;;;7.75;1.38;;;;;;;;;;5052729;28;20485;-67
2021/06/29 01:53:53;;;;;;;6.97;1.40;;;;;;;;;;5052858;28;20040;-67
2021/06/29 01:56:28;;;;;;;14.05;2.10;;;;;;;;;;5053222;28;20021;-67
2021/06/29 01:58:58;;;;;;;18.52;1.95;;;;;;;;;;5052982;28;20036;-67
2021/06/29 02:01:24;;;;;;;5.85;1.65;;;;;;;;;;5052975;28;20052;-67
2021/06/29 02:03:50;;;;;;;6.30;1.30;;;;;;;;;;5052978;28;20021;-67
2021/06/29 02:06:17;;;;;;;3.15;1.30;;;;;;;;;;5052969;28;20036;-67
2021/06/29 02:08:43;;;;;;;5.28;1.13;;;;;;;;;;5052761;28;20041;-67
2021/06/29 02:11:09;;;;;;;5.55;1.30;;;;;;;;;;5053052;28;20025;-67
2021/06/29 02:13:35;;;;;;;3.22;1.25;;;;;;;;;;5052760;28;20025;-67
2021/06/29 02:16:02;;;;;;;4.13;1.20;;;;;;;;;;5052807;28;20039;-67
2021/06/29 02:18:28;;;;;;;3.95;1.02;;;;;;;;;;5052703;28;20051;-67
2021/06/29 02:20:54;;;;;;;4.70;1.40;;;;;;;;;;5052969;28;20079;-67
2021/06/29 02:23:20;;;;;;;2.20;1.17;;;;;;;;;;5052970;28;20104;-67
2021/06/29 02:25:47;;;;;;;5.65;1.20;;;;;;;;;;5053599;28;20029;-67
2021/06/29 02:28:13;;;;;;;4.28;1.20;;;;;;;;;;5057053;28;20397;-67
2021/06/29 02:30:41;;;;;;;2.50;1.00;;;;;;;;;;5055878;28;20040;-67
2021/06/29 02:33:07;;;;;;;3.78;1.10;;;;;;;;;;5056901;28;20116;-67
2021/06/29 02:35:33;;;;;;;5.30;1.40;;;;;;;;;;5056936;28;20029;-67
2021/06/29 02:37:59;;;;;;;4.40;1.45;;;;;;;;;;5056734;28;20017;-67
2021/06/29 02:40:26;;;;;;;4.20;1.20;;;;;;;;;;5056923;28;20025;-67
2021/06/29 02:42:52;;;;;;;4.15;1.40;;;;;;;;;;5056293;28;20385;-67
2021/06/29 02:45:20;;;;;;;6.22;1.30;;;;;;;;;;5056647;28;20056;-67
2021/06/29 02:47:46;;;;;;;4.63;0.95;;;;;;;;;;5056505;28;20025;-67
2021/06/29 02:50:13;;;;;;;5.18;1.20;;;;;;;;;;5056606;28;20436;-67
2021/06/29 02:52:39;;;;;;;11.23;1.40;;;;;;;;;;5056413;28;20047;-67
2021/06/29 02:55:07;;;;;;;4.32;1.27;;;;;;;;;;5056329;28;20036;-67
2021/06/29 02:57:33;;;;;;;4.68;1.23;;;;;;;;;;5056080;28;20028;-67
2021/06/29 02:59:59;;;;;;;5.18;1.45;;;;;;;;;;5056480;28;20025;-67
2021/06/29 03:02:25;;;;;;;10.90;2.08;;;;;;;;;;5056053;28;20029;-67
2021/06/29 03:04:51;;;;;;;8.35;1.80;;;;;;;;;;5056137;28;20064;-67
2021/06/29 03:07:17;;;;;;;5.20;1.60;;;;;;;;;;5056188;28;20033;-67
2021/06/29 03:09:43;;;;;;;8.15;1.90;;;;;;;;;;5056052;28;20397;-67
2021/06/29 03:12:10;;;;;;;5.68;1.70;;;;;;;;;;5056010;28;20036;-67
2021/06/29 03:14:36;;;;;;;11.25;1.60;;;;;;;;;;5056163;28;20032;-67
2021/06/29 03:17:06;;;;;;;4.72;1.52;;;;;;;;;;5056116;28;20461;-67
2021/06/29 03:19:32;;;;;;;4.60;1.73;;;;;;;;;;5055902;28;20044;-67
2021/06/29 03:21:59;;;;;;;8.65;1.90;;;;;;;;;;5056010;28;20068;-67
2021/06/29 03:24:26;;;;;;;13.32;2.00;;;;;;;;;;5056024;28;20028;-68
2021/06/29 03:26:52;;;;;;;7.70;1.80;;;;;;;;;;5055994;28;20063;-68
2021/06/29 03:29:18;;;;;;;9.35;1.83;;;;;;;;;;5055874;28;20370;-67
2021/06/29 03:31:44;;;;;;;8.77;2.10;;;;;;;;;;5055384;28;20053;-67
2021/06/29 03:34:10;;;;;;;8.57;1.80;;;;;;;;;;5055730;28;20086;-67
2021/06/29 03:36:36;;;;;;;6.75;1.83;;;;;;;;;;5055189;28;20473;-67
2021/06/29 03:39:02;;;;;;;15.88;1.95;;;;;;;;;;5055791;28;20032;-67
2021/06/29 03:41:28;;;;;;;6.50;1.40;;;;;;;;;;5055580;28;20033;-67
2021/06/29 03:43:54;;;;;;;4.53;1.88;;;;;;;;;;5055019;28;20043;-67
2021/06/29 03:46:20;;;;;;;4.65;3.40;;;25.90;50.60;;;;;;5055548;28;20100;-67
2021/06/29 03:48:46;;;;;;;6.40;2.40;;;23.80;53.50;;;;;;5055444;28;20446;-67
2021/06/29 03:51:11;;;;;;;8.63;1.85;;;23.70;52.80;;;;;;5055445;28;20083;-67
2021/06/29 03:53:37;;;;;;;11.30;2.00;;;23.70;52.80;;;;;;5055619;28;20039;-67
2021/06/29 03:56:03;;;;;;;6.10;1.65;;;23.70;52.70;;;;;;5054986;28;20045;-68
2021/06/29 03:58:29;;;;;;;4.32;1.20;;;23.80;52.60;;;;;;5054853;28;20021;-67
2021/06/29 04:00:54;;;;;;;4.30;1.30;;;23.70;52.40;;;;;;5055414;28;20032;-67
2021/06/29 04:03:20;;;;;;;6.25;1.30;;;23.70;52.20;;;;;;5054230;28;20116;-67
2021/06/29 04:05:46;;;;;;;3.47;1.50;;;23.70;51.70;;;;;;5055315;28;20112;-67
2021/06/29 04:08:11;;;;;;;3.30;1.17;;;23.70;51.30;;;;;;5055030;28;20017;-67
2021/06/29 04:10:37;;;;;;;4.95;1.30;;;23.70;51.40;;;;;;5055067;28;20044;-67
2021/06/29 04:13:03;;;;;;;4.53;1.00;;;23.70;51.40;;;;;;5054697;28;20054;-67
2021/06/29 04:15:29;;;;;;;6.47;1.35;;;23.80;51.50;;;;;;5054945;28;20037;-67
2021/06/29 04:17:55;;;;;;;3.95;1.27;;;23.80;51.50;;;;;;5054838;28;20025;-67
2021/06/29 04:20:20;;;;;;;5.40;1.67;;;23.70;51.90;;;;;;5054908;28;20025;-67
2021/06/29 04:22:46;;;;;;;2.72;1.10;;;23.70;52.00;;;;;;5054837;28;20025;-67
2021/06/29 04:25:12;;;;;;;6.85;1.30;;;23.70;52.00;;;;;;5055098;28;20381;-67
2021/06/29 04:27:38;;;;;;;5.22;1.40;;;23.70;51.70;;;;;;5054862;28;20021;-67
2021/06/29 04:30:08;;;;;;;4.22;1.10;;;23.80;51.50;;;;;;5054336;28;20155;-67
2021/06/29 04:32:34;;;;;;;2.53;1.08;;;23.70;51.70;;;;;;5054442;28;20059;-67
2021/06/29 04:35:00;;;;;;;2.88;1.10;;;23.70;51.90;;;;;;5054497;28;20044;-67
2021/06/29 04:37:26;;;;;;;5.25;1.30;;;23.80;51.70;;;;;;5054471;28;20028;-67
2021/06/29 04:39:51;;;;;;;6.82;1.10;;;23.80;51.30;;;;;;5054351;28;20485;-67
2021/06/29 04:42:17;;;;;;;4.38;1.13;;;23.70;50.80;;;;;;5054142;28;20358;-67
2021/06/29 04:44:43;;;;;;;3.60;1.13;;;23.80;50.60;;;;;;5054517;28;20072;-67
2021/06/29 04:47:09;;;;;;;9.30;1.50;;;23.80;50.70;;;;;;5054392;28;20029;-68
2021/06/29 04:49:37;;;;;;;6.82;1.63;;;23.80;50.60;;;;;;5053334;28;20416;-67
2021/06/29 04:52:03;;;;;;;8.98;1.45;;;23.90;51.30;;;;;;5054159;28;20021;-67
2021/06/29 04:54:29;;;;;;;3.42;1.25;;;23.90;51.20;;;;;;5054409;28;20477;-67
2021/06/29 04:56:55;;;;;;;6.40;1.67;;;23.90;51.70;;;;;;5054220;28;20040;-67
2021/06/29 04:59:20;;;;;;;3.67;1.33;;;23.90;52.00;;;;;;5054002;28;20025;-67
2021/06/29 05:01:46;;;;;;;9.70;1.40;;;23.90;52.30;;;;;;5054308;28;20021;-67
2021/06/29 05:04:12;;;;;;;8.13;1.38;;;23.90;52.30;;;;;;5053877;28;20363;-67
2021/06/29 05:06:37;;;;;;;3.15;1.10;;;23.90;52.00;;;;;;5053915;28;20048;-67
2021/06/29 05:09:03;;;;;;;7.47;1.40;;;24.00;52.10;;;;;;5052761;28;20037;-66
2021/06/29 05:11:29;;;;;;;11.88;1.38;;;24.00;51.90;;;;;;5052085;28;20017;-67
2021/06/29 05:13:54;;;;;;;8.02;1.67;;;24.00;51.70;;;;;;5052997;28;20025;-66
2021/06/29 05:16:20;;;;;;;7.32;1.40;;;24.10;51.60;;;;;;5052878;28;20103;-66
2021/06/29 05:18:46;;;;;;;6.43;1.40;;;24.10;51.20;;;;;;5053580;28;20108;-67
2021/06/29 05:21:11;;;;;;;5.15;1.35;;;24.20;50.70;;;;;;5053624;28;20055;-66
2021/06/29 05:23:37;;;;;;;5.20;1.30;;;24.20;50.40;;;;;;5053252;28;20568;-71
2021/06/29 05:26:03;;;;;;;10.55;2.15;;;24.20;50.30;;;;;;5052374;28;20024;-71
2021/06/29 05:28:29;;;;;;;8.38;1.17;;;24.30;50.30;;;;;;5052068;28;20527;-71
2021/06/29 05:30:55;;;;;;;11.10;1.52;;;24.30;50.20;;;;;;5051876;28;20466;-71
2021/06/29 05:33:21;;;;;;;4.80;1.40;;;24.30;50.20;;;;;;5051455;28;20142;-71
2021/06/29 05:35:47;;;;;;;3.33;1.25;;;24.40;49.90;;;;;;5052293;28;20036;-71
2021/06/29 05:38:13;;;;;;;3.40;1.10;;;24.40;49.50;;;;;;5053553;28;20021;-71
2021/06/29 05:40:38;;;;;;;2.78;1.20;;;24.50;48.90;;;;;;5053588;28;20435;-71
2021/06/29 05:43:04;;;;;;;4.20;1.67;;;24.50;48.80;;;;;;5053473;28;20028;-71
2021/06/29 05:45:30;;;;;;;5.50;1.42;;;24.60;48.90;;;;;;5053431;28;20033;-71
2021/06/29 05:47:57;;;;;;;4.43;1.20;;;24.60;48.60;;;;;;5053437;28;20045;-71
2021/06/29 05:50:23;;;;;;;3.00;1.10;;;24.70;48.50;;;;;;5053653;28;20041;-71
2021/06/29 05:52:49;;;;;;;7.43;1.20;;;24.70;48.70;;;;;;5053290;28;20078;-70
2021/06/29 05:55:15;;;;;;;13.52;1.42;;;24.80;48.70;;;;;;5053456;28;20032;-71
2021/06/29 05:57:42;;;;;;;10.52;1.45;;;24.80;48.70;;;;;;5053205;28;20024;-68
2021/06/29 06:00:11;;;;;;;12.73;1.45;;;24.90;49.40;;;;;;5052937;28;20037;-68
2021/06/29 06:02:38;;;;;;;5.38;1.30;;;24.90;48.70;;;;;;5053102;28;20055;-72
2021/06/29 06:05:08;;;;;;;6.35;1.50;;;25.00;48.80;;;;;;5053503;28;20033;-72
2021/06/29 06:07:35;;;;;;;7.00;1.40;;;25.00;48.80;;;;;;5053195;28;20078;-71
2021/06/29 06:10:01;;;;;;;4.07;1.45;;;25.10;48.70;;;;;;5052755;28;20071;-72
2021/06/29 06:12:27;;;;;;;10.07;1.40;;;25.10;48.70;;;;;;5052982;28;20025;-71
2021/06/29 06:14:55;;;;;;;3.05;1.10;;;25.20;48.90;;;;;;5053336;28;20025;-72
2021/06/29 06:17:21;;;;;;;3.63;1.20;;;25.30;49.00;;;;;;5053035;28;20489;-72
2021/06/29 06:19:47;;;;;;;6.57;1.20;;;25.30;48.80;;;;;;5052838;28;20067;-72
2021/06/29 06:22:12;;;;;;;8.85;1.30;;;25.30;48.90;;;;;;5052961;28;20032;-69
2021/06/29 06:24:38;;;;;;;4.53;1.48;;;25.40;48.80;;;;;;5053041;28;20032;-72
2021/06/29 06:27:07;;;;;;;3.22;1.23;;;25.40;48.50;;;;;;5052664;28;20108;-71
2021/06/29 06:29:32;;;;;;;14.27;1.52;;;25.40;48.90;;;;;;5052854;28;20037;-72
2021/06/29 06:31:58;;;;;;;13.52;2.17;;;25.40;48.90;;;;;;5052734;28;20480;-72
2021/06/29 06:34:24;;;;;;;12.63;1.92;;;25.50;49.10;;;;;;5052886;28;20473;-72
2021/06/29 06:36:49;;;;;;;13.18;1.58;;;25.50;49.10;;;;;;5052894;28;20021;-71
2021/06/29 06:39:15;;;;;;;9.13;1.58;;;25.60;49.10;;;;;;5052613;28;20025;-72
2021/06/29 06:41:41;;;;;;;5.65;1.50;;;25.60;48.80;;;;;;5052742;28;20029;-72
2021/06/29 06:44:06;;;;;;;3.75;1.48;;;25.70;48.70;;;;;;5053053;28;20055;-72
2021/06/29 06:46:32;;;;;;;7.70;1.35;;;25.70;48.80;;;;;;5052443;28;20377;-71
2021/06/29 06:48:58;;;;;;;4.70;1.40;;;25.70;48.90;;;;;;5052121;28;20060;-72
2021/06/29 06:51:23;;;;;;;5.07;1.30;;;25.80;49.40;;;;;;5052252;28;20547;-71
2021/06/29 06:53:50;;;;;;;7.32;1.73;;;25.80;49.80;;;;;;5052096;28;20420;-72
2021/06/29 06:56:16;;;;;;;14.77;1.95;;;25.80;49.90;;;;;;5052362;28;20037;-72
2021/06/29 06:58:44;;;;;;;6.80;1.65;;;25.90;49.50;;;;;;5052223;28;20074;-72
2021/06/29 07:01:11;;;;;;;3.10;1.33;;;25.90;49.30;;;;;;5051132;28;20393;-72
2021/06/29 07:03:37;;;;;;;6.80;1.55;;;25.90;49.40;;;;;;5052293;28;20090;-71
2021/06/29 07:06:06;;;;;;;8.18;1.30;;;26.00;49.20;;;;;;5052516;28;20033;-72
2021/06/29 07:08:33;;;;;;;9.65;1.40;;;26.10;49.00;;;;;;5052045;28;20405;-68
2021/06/29 07:11:00;;;;;;;6.57;1.38;;;26.10;48.40;;;;;;5052262;28;20082;-71
2021/06/29 07:13:25;;;;;;;4.32;1.30;;;26.20;47.90;;;;;;5055210;28;20035;-70
2021/06/29 07:15:51;;;;;;;5.10;1.23;;;26.20;48.00;;;;;;5055909;28;20017;-71
2021/06/29 07:18:18;;;;;;;7.00;1.42;;;26.20;48.30;;;;;;5055756;28;20487;-71
2021/06/29 07:20:44;;;;;;;7.75;1.40;;;26.20;48.80;;;;;;5056125;28;20025;-72
2021/06/29 07:23:11;;;;;;;6.40;1.40;;;26.30;49.10;;;;;;5055931;28;20082;-72
2021/06/29 07:25:38;;;;;;;5.38;1.52;;;;;;;;;;5055874;28;20500;-71
2021/06/29 07:28:04;;;;;;;12.75;1.70;;;;;;;;;;5055629;28;20029;-70
2021/06/29 07:30:30;;;;;;;4.88;1.45;;;;;;;;;;5055713;28;20496;-72
2021/06/29 07:32:58;;;;;;;5.63;1.17;;;;;;;;;;5055532;28;20515;-72
2021/06/29 07:35:24;;;;;;;7.68;1.20;;;;;;;;;;5055752;28;20021;-74
2021/06/29 07:37:51;;;;;;;3.25;1.27;;;;;;;;;;5055529;28;20025;-75
2021/06/29 07:40:17;;;;;;;2.60;1.10;;;;;;;;;;5055659;28;20045;-75
2021/06/29 07:42:43;;;;;;;10.48;1.48;;;;;;;;;;5055488;28;20036;-68
2021/06/29 07:45:11;;;;;;;8.10;1.40;;;;;;;;;;5055231;28;20520;-70
2021/06/29 07:47:38;;;;;;;8.38;1.70;;;;;;;;;;5055305;28;20146;-71
2021/06/29 07:50:05;;;;;;;10.70;1.70;;;;;;;;;;5055193;28;20044;-68
2021/06/29 07:52:31;;;;;;;14.93;2.00;;;;;;;;;;5055163;28;20481;-74
2021/06/29 07:54:57;;;;;;;6.70;1.50;;;;;;;;;;5055401;28;20040;-73
2021/06/29 07:57:23;;;;;;;5.10;1.23;;;;;;;;;;5055347;28;20033;-72
2021/06/29 07:59:49;;;;;;;7.78;1.50;;;;;;;;;;5054965;28;20040;-72
2021/06/29 08:02:15;;;;;;;8.25;1.65;;;;;;;;;;5054802;28;20100;-69
2021/06/29 08:04:43;;;;;;;9.20;1.50;;;;;;;;;;5055123;28;20029;-74
2021/06/29 08:07:09;;;;;;;5.47;1.52;;;;;;;;;;5055059;28;20059;-72
2021/06/29 08:09:35;;;;;;;9.30;1.40;;;;;;;;;;5054822;28;20037;-71
2021/06/29 08:12:02;;;;;;;7.03;1.35;;;;;;;;;;5054747;28;20493;-74
2021/06/29 08:14:28;;;;;;;9.07;1.42;;;;;;;;;;5054641;28;20025;-73
2021/06/29 08:16:54;;;;;;;5.28;1.30;;;;;;;;;;5053753;28;20391;-74
2021/06/29 08:19:20;;;;;;;3.75;1.23;;;;;;;;;;5054802;28;20372;-74
2021/06/29 08:21:46;;;;;;;4.00;1.10;;;;;;;;;;5054540;28;20461;-68
2021/06/29 08:24:12;;;;;;;9.63;1.20;;;;;;;;;;5054711;28;20025;-68
2021/06/29 08:26:38;;;;;;;1.73;1.23;;;;;;;;;;5055056;28;20029;-67
2021/06/29 08:29:04;;;;;;;5.60;1.45;;;;;;;;;;5054575;28;20029;-67
2021/06/29 08:31:31;;;;;;;11.57;1.45;;;;;;;;;;5052805;28;20029;-67
2021/06/29 08:33:57;;;;;;;7.40;1.40;;;;;;;;;;5054513;28;20021;-67
2021/06/29 08:36:23;;;;;;;4.95;1.20;;;;;;;;;;5054461;28;20110;-67
2021/06/29 08:38:49;;;;;;;7.00;1.50;;;;;;;;;;5054219;28;20025;-67
2021/06/29 08:41:16;;;;;;;2.33;1.20;;;;;;;;;;5053272;28;20021;-67
2021/06/29 08:43:42;;;;;;;5.35;1.33;;;;;;;;;;5052762;28;20054;-67
2021/06/29 08:46:09;;;;;;;10.98;1.60;;;;;;;;;;5053591;28;20432;-67
2021/06/29 08:48:35;;;;;;;7.38;1.40;;;;;;;;;;5053698;28;20087;-67
2021/06/29 08:51:05;;;;;;;4.15;1.55;;;;;;;;;;5053354;28;20013;-67
2021/06/29 08:53:31;;;;;;;2.42;1.30;;;;;;;;;;5052575;28;20373;-67
2021/06/29 08:55:58;;;;;;;2.97;1.40;;;;;;;;;;5053967;28;20021;-67
2021/06/29 08:58:24;;;;;;;5.75;1.20;;;;;;;;;;5054071;28;20025;-67
2021/06/29 09:00:52;;;;;;;2.58;1.20;;;;;;;;;;5054244;28;20100;-67
2021/06/29 09:03:18;;;;;;;4.03;1.20;;;;;;;;;;5053958;28;20028;-67
2021/06/29 09:05:45;;;;;;;9.32;1.50;;;;;;;;;;5053943;28;20025;-67
2021/06/29 09:08:13;;;;;;;5.05;1.55;;;;;;;;;;5054240;28;20043;-67
2021/06/29 09:10:40;;;;;;;3.60;1.35;;;;;;;;;;5054266;28;20496;-67
2021/06/29 09:13:07;;;;;;;2.90;1.60;;;;;;;;;;5052398;28;20056;-67
2021/06/29 09:15:37;;;;;;;8.00;1.60;;;;;;;;;;5054103;28;20036;-67
2021/06/29 09:18:03;;;;;;;8.60;2.00;;;;;;;;;;5054016;28;20025;-67
2021/06/29 09:20:32;;;;;;;7.30;1.58;;;;;;;;;;5053775;28;20045;-67
2021/06/29 09:23:01;;;;;;;7.70;1.67;;;;;;;;;;5053758;28;20033;-67
2021/06/29 09:25:30;;;;;;;9.30;2.05;;;;;;;;;;5053720;28;20033;-67
2021/06/29 09:27:57;;;;;;;4.90;1.45;;;;;;;;;;5054088;28;20056;-67
2021/06/29 09:30:34;;;;;;;5.57;1.20;;;;;;;;;;5053880;28;20051;-67
2021/06/29 09:33:01;;;;;;;7.55;1.65;;;;;;;;;;5053510;28;20545;-67
2021/06/29 09:35:28;;;;;;;5.57;2.00;;;;;;;;;;5053123;28;20029;-67
2021/06/29 09:37:55;;;;;;;7.65;1.33;;;;;;;;;;5053702;28;20013;-68
2021/06/29 09:40:21;;;;;;;9.75;1.60;;;;;;;;;;5053506;28;20029;-67
2021/06/29 09:42:47;;;;;;;8.00;1.83;;;;;;;;;;5053596;28;20071;-67
2021/06/29 09:45:35;;;;;;;9.80;1.70;;;;;;;;;;5053206;28;20413;-67
2021/06/29 09:48:02;;;;;;;2.90;1.40;;;;;;;;;;5053503;28;20025;-67
2021/06/29 09:50:34;;;;;;;5.70;1.60;;;;;;;;;;5053507;28;20037;-67
2021/06/29 09:53:11;;;;;;;5.60;2.13;;;;;;;;;;5053400;28;20096;-67
2021/06/29 09:55:40;;;;;;;4.18;1.67;;;;;;;;;;5053333;28;20102;-67
2021/06/29 09:58:08;;;;;;;4.47;1.60;;;;;;;;;;5053320;28;20104;-67
2021/06/29 10:01:00;;;;;;;10.35;1.67;;;;;;;;;;5052987;28;20025;-67
2021/06/29 10:03:30;;;;;;;6.50;2.05;;;;;;;;;;5050192;28;20615;-67
2021/06/29 10:05:57;;;;;;;6.40;1.90;;;;;;;;;;5053183;28;20473;-67
2021/06/29 10:08:25;;;;;;;8.43;1.90;;;;;;;;;;5051450;28;20029;-68
2021/06/29 10:11:02;;;;;;;17.85;1.90;;;;;;;;;;5050085;28;20033;-67
2021/06/29 10:13:32;;;;;;;16.70;2.10;;;;;;;;;;5048579;28;20079;-67
2021/06/29 10:15:59;;;;;;;8.27;1.88;;;;;;;;;;5051800;28;20504;-67
2021/06/29 10:18:26;;;;;;;12.05;2.17;;;;;;;;;;5052660;28;20112;-67
2021/06/29 10:20:53;;;;;;;9.35;2.08;;;;;;;;;;5052740;28;20025;-66
2021/06/29 10:23:20;;;;;;;14.38;1.90;;;;;;;;;;5050323;28;20120;-67
2021/06/29 10:25:47;;;;;;;7.30;2.35;;;;;;;;;;5050182;28;20503;-67
2021/06/29 10:28:18;;;;;;;5.05;1.90;;;;;;;;;;5050030;28;20025;-68
2021/06/29 10:30:44;;;;;;;10.23;1.83;;;;;;;;;;5052771;28;20064;-67
2021/06/29 10:33:11;;;;;;;10.30;2.58;;;;;;;;;;5052381;28;20021;-67
2021/06/29 10:35:37;;;;;;;7.13;1.88;;;;;;;;;;5052627;28;20032;-67
2021/06/29 10:38:04;;;;;;;9.77;2.03;;;;;;;;;;5052269;28;20045;-67
2021/06/29 10:40:31;;;;;;;13.20;2.72;;;;;;;;;;5051892;28;20029;-68
2021/06/29 10:43:00;;;;;;;10.82;2.25;;;;;;;;;;5049827;28;20054;-67
2021/06/29 10:48:17;;;;;;;;;;;;;;;;;;5053597;28;20052;-67
2021/06/29 10:50:44;;;;;;;22.58;3.55;;;;;;;;;;5056511;28;19908;-68
2021/06/29 10:53:28;;;;;;;14.13;2.53;;;;;;;;;;5056484;28;20028;-68
2021/06/29 10:55:54;;;;;;;18.23;3.10;;;;;;;;;;5056346;28;20104;-68
2021/06/29 10:58:37;;;;;;;14.30;3.17;;;;;;;;;;5056550;28;20029;-67
2021/06/29 11:01:21;;;;;;;27.77;4.03;;;;;;;;;;5056220;28;20021;-67
2021/06/29 11:03:48;;;;;;;18.83;3.00;;;;;;;;;;5056399;28;20389;-67
2021/06/29 11:06:14;;;;;;;19.38;3.25;;;;;;;;;;5055875;28;20020;-67
2021/06/29 11:08:47;;;;;;;24.25;3.58;;;;;;;;;;5054687;28;20033;-68
2021/06/29 11:11:14;;;;;;;24.40;3.70;;;;;;;;;;5056112;28;20029;-67
2021/06/29 11:13:44;;;;;;;22.42;3.33;;;;;;;;;;5056237;28;20029;-67
2021/06/29 11:16:10;;;;;;;30.30;3.65;;;;;;;;;;5056299;28;20028;-67
2021/06/29 11:18:40;;;;;;;32.15;4.20;;;;;;;;;;5056123;28;20424;-67
2021/06/29 11:21:08;;;;;;;17.63;3.75;;;;;;;;;;5056032;28;20131;-67
2021/06/29 11:23:34;;;;;;;25.08;4.15;;;;;;;;;;5055945;28;20025;-67
2021/06/29 11:26:01;;;;;;;22.02;4.05;;;;;;;;;;5055853;28;20465;-67
2021/06/29 11:28:32;;;;;;;14.23;3.28;;;;;;;;;;5055587;28;20028;-68
2021/06/29 11:31:01;;;;;;;23.15;3.53;;;;;;;;;;5055830;28;20029;-68
2021/06/29 11:33:30;;;;;;;19.75;3.78;;;;;;;;;;5055714;28;20538;-68
2021/06/29 11:35:57;;;;;;;22.25;3.50;;;;;;;;;;5055765;28;20489;-68
2021/06/29 11:38:32;;;;;;;20.50;3.67;;;;;;;;;;5055499;28;20017;-67
2021/06/29 11:41:18;;;;;;;21.88;3.53;;;;;;;;;;5055672;28;20037;-67
2021/06/29 11:43:44;;;;;;;14.48;3.38;;;;;;;;;;5055260;28;20492;-67
2021/06/29 11:46:10;;;;;;;22.77;3.80;;;;;;;;;;5055514;28;20503;-68
2021/06/29 11:48:45;;;;;;;20.45;3.78;;;;;;;;;;5054881;28;20021;-68
2021/06/29 11:51:11;;;;;;;26.85;3.90;;;;;;;;;;5054891;28;20025;-67
2021/06/29 11:53:39;;;;;;;29.48;4.72;;;;;;;;;;5054376;28;20024;-68
2021/06/29 11:56:09;;;;;;;23.48;3.95;;;;;;;;;;5055166;28;20373;-67
2021/06/29 11:58:35;;;;;;;23.40;4.28;;;;;;;;;;5054893;28;20036;-68
2021/06/29 12:01:06;;;;;;;24.10;3.67;;;;;;;;;;5055341;28;20121;-68
2021/06/29 12:03:32;;;;;;;31.77;4.45;;;;;;;;;;5055226;28;20021;-67
2021/06/29 12:05:58;;;;;;;22.83;4.78;;;;;;;;;;5055255;28;20154;-68
2021/06/29 12:08:27;;;;;;;32.78;4.97;;;;;;;;;;5054880;28;20064;-69
2021/06/29 12:10:57;;;;;;;30.95;4.45;;;;;;;;;;5054882;28;20040;-68
2021/06/29 12:13:28;;;;;;;23.27;4.10;;;;;;;;;;5054743;28;20027;-67
2021/06/29 12:15:55;;;;;;;25.58;4.75;;;;;;;;;;5055051;28;20036;-67
2021/06/29 12:18:22;;;;;;;29.88;4.75;;;;;;;;;;5055115;28;20025;-67
2021/06/29 12:20:53;;;;;;;26.65;4.00;;;;;;;;;;5054728;28;20029;-67
2021/06/29 12:23:20;;;;;;;30.58;5.40;;;;;;;;;;5054735;28;20043;-67
2021/06/29 12:25:53;;;;;;;24.60;5.00;;;;;;;;;;5054629;28;20013;-67
2021/06/29 12:28:22;;;;;;;30.42;4.47;;;;;;;;;;5054859;28;20021;-67
2021/06/29 12:30:52;;;;;;;37.65;4.70;;;;;;;;;;5054722;28;20119;-67
2021/06/29 12:33:29;;;;;;;28.83;4.73;;;;;;;;;;5054717;28;20029;-67
2021/06/29 12:36:03;;;;;;;27.92;4.50;;;;;;;;;;5054343;28;20021;-68
2021/06/29 12:38:31;;;;;;;24.42;4.30;;;;;;;;;;5054011;28;20025;-67
2021/06/29 12:41:05;;;;;;;23.50;4.20;;;;;;;;;;5051368;28;20048;-67
2021/06/29 12:43:31;;;;;;;28.23;4.07;;;;;;;;;;5053649;28;20045;-67
2021/06/29 12:45:57;;;;;;;32.33;4.60;;;;;;;;;;5053731;28;20377;-67
2021/06/29 12:48:23;;;;;;;31.00;4.45;;;;;;;;;;5053668;28;20029;-67
2021/06/29 12:50:57;;;;;;;27.52;4.15;;;;;;;;;;5053886;28;20037;-67
2021/06/29 12:53:23;;;;;;;33.75;4.25;;;;;;;;;;5054054;28;20481;-67
2021/06/29 12:55:50;;;;;;;29.98;4.95;;;;;;;;;;5052804;28;20094;-67
2021/06/29 12:58:16;;;;;;;26.00;4.55;;;;;;;;;;5054159;28;20029;-74
2021/06/29 13:00:49;;;;;;;22.77;4.93;;;;;;;;;;5054073;28;20477;-67
2021/06/29 13:03:20;;;;;;;34.05;4.68;;;;;;;;;;5053515;28;20036;-67
2021/06/29 13:05:46;;;;;;;21.33;4.40;;;;;;;;;;5053707;28;20060;-68
2021/06/29 13:08:17;;;;;;;34.72;4.57;;;;;;;;;;5053519;28;20351;-68
2021/06/29 13:10:43;;;;;;;22.70;4.72;;;;;;;;;;5052869;28;20384;-67
2021/06/29 13:13:16;;;;;;;33.88;5.35;;;;;;;;;;5053893;28;20025;-67
2021/06/29 13:15:42;;;;;;;32.95;5.72;;;;;;;;;;5053892;28;20477;-67
2021/06/29 13:18:08;;;;;;;36.17;5.70;;;;;;;;;;5053743;28;20024;-68
2021/06/29 13:20:34;;;;;;;30.15;4.80;;;;;;;;;;5053587;28;20021;-68
2021/06/29 13:23:01;;;;;;;23.92;4.88;;;;;;;;;;5053183;28;20060;-67
2021/06/29 13:25:34;;;;;;;24.90;4.75;;;;;;;;;;5053240;28;20029;-67
2021/06/29 13:28:06;;;;;;;27.52;5.40;;;;;;;;;;5053403;28;20060;-67
2021/06/29 13:30:33;;;;;;;24.40;4.10;;;;;;;;;;5053255;28;20076;-67
2021/06/29 13:32:59;;;;;;;28.63;4.93;;;;;;;;;;5052259;28;20032;-67
2021/06/29 13:35:25;;;;;;;35.28;4.78;;;;;;;;;;5050642;28;20493;-68
2021/06/29 13:37:56;;;;;;;27.77;5.13;;;;;;;;;;5050590;28;20027;-68
2021/06/29 13:40:31;;;;;;;26.40;4.88;;;;;;;;;;5052024;28;20029;-67
2021/06/29 13:43:23;;;;;;;31.52;5.38;;;;;;;;;;5052606;28;20021;-67
2021/06/29 13:45:51;;;;;;;32.65;4.60;;;;;;;;;;5053136;28;20043;-67
2021/06/29 13:48:29;;;;;;;30.65;4.80;;;;;;;;;;5051779;28;20410;-68
2021/06/29 13:50:55;;;;;;;34.45;5.38;;;;;;;;;;5049573;28;20518;-67
2021/06/29 13:53:30;;;;;;;29.48;5.15;;;;;;;;;;5049016;28;20071;-67
2021/06/29 13:56:02;;;;;;;37.30;5.70;;;;;;;;;;5049145;28;20029;-68
2021/06/29 13:58:29;;;;;;;41.22;5.80;;;;;;;;;;5051455;28;20032;-67
2021/06/29 14:00:59;;;;;;;36.92;5.53;;;;;;;;;;5052275;28;20013;-68
2021/06/29 14:03:28;;;;;;;32.80;5.95;;;;;;;;;;5057052;28;20037;-72
2021/06/29 14:06:02;;;;;;;32.92;6.18;;;;;;;;;;5052208;28;20025;-69
2021/06/29 14:08:29;;;;;;;32.58;5.93;;;;;;;;;;5054748;28;20393;-68
2021/06/29 14:11:00;;;;;;;36.63;5.55;;;;;;;;;;5072456;28;20029;-68